Time;durP1;ratioP1;P1;durP2;ratioP2;P2;SDS_P1;SDS_P2;PMS_P1;PMS_P2;Temp;Humidity;BMP_temperature;BMP_pressure;BME280_temperature;BME280_humidity;BME280_pressure;Samples;Min_cycle;Max_cycle;Signal;HPM_P1;HPM_P2
2023/10/03 00:00:27;;;;;;;;;;;22.20;1.00;;;;;;4915820;29;19927;-51
2023/10/03 00:02:55;;;;;;;;;;;22.10;1.00;;;;;;4915796;29;19927;-56
2023/10/03 00:05:23;;;;;;;;;;;22.10;1.00;;;;;;4915666;29;19971;-56
2023/10/03 00:07:51;;;;;;;;;;;22.20;1.00;;;;;;4915779;29;20119;-53
2023/10/03 00:10:18;;;;;;;;;;;22.20;1.00;;;;;;4918694;29;20025;-51
2023/10/03 00:12:48;;;;;;;;;;;22.20;1.00;;;;;;4919869;29;19927;-52
2023/10/03 00:15:16;;;;;;;;;;;22.10;1.00;;;;;;4919836;29;19927;-55
2023/10/03 00:17:44;;;;;;;;;;;22.10;1.00;;;;;;4919668;29;19927;-52
2023/10/03 00:20:12;;;;;;;;;;;22.10;1.00;;;;;;5111890;23;19937;-52
2023/10/03 00:22:39;;;;;;;;;;;22.10;1.00;;;;;;4957502;29;20388;-54
2023/10/03 00:25:07;;;;;;;;;;;22.10;1.00;;;;;;4957566;29;19926;-55
2023/10/03 00:27:35;;;;;;;;;;;22.10;1.00;;;;;;4957637;29;20356;-52
2023/10/03 00:30:03;;;;;;;;;;;22.10;1.00;;;;;;4939769;29;19927;-55
2023/10/03 00:32:30;;;;;;;;;;;22.10;1.00;;;;;;4957644;29;19998;-56
2023/10/03 00:34:57;;;;;;;;;;;22.20;1.00;;;;;;4957415;29;19933;-53
2023/10/03 00:37:24;;;;;;;;;;;22.10;1.00;;;;;;4957485;29;19981;-53
2023/10/03 00:39:51;;;;;;;;;;;22.10;1.00;;;;;;4957340;29;19926;-56
2023/10/03 00:42:17;;;;;;;;;;;22.10;1.00;;;;;;4957355;29;19926;-52
2023/10/03 00:44:45;;;;;;;;;;;22.10;1.00;;;;;;4940388;29;19930;-56
2023/10/03 00:47:12;;;;;;;;;;;22.10;1.00;;;;;;4957225;29;19926;-56
2023/10/03 00:49:39;;;;;;;;;;;22.10;1.00;;;;;;4939720;29;19930;-52
2023/10/03 00:52:06;;;;;;;;;;;22.10;1.00;;;;;;5803112;23;19977;-52
2023/10/03 00:54:32;;;;;;;;;;;22.10;1.00;;;;;;4956901;29;19933;-57
2023/10/03 00:56:59;;;;;;;;;;;22.10;1.00;;;;;;4924067;29;20029;-55
2023/10/03 00:59:28;;;;;;;;;;;22.10;1.00;;;;;;4956841;28;20463;-56
2023/10/03 01:02:02;;;;;;;;;;;22.10;1.00;;;;;;4939577;29;19978;-53
2023/10/03 01:04:30;;;;;;;;;;;22.10;1.00;;;;;;4956909;29;20001;-57
2023/10/03 01:06:59;;;;;;;;;;;22.10;1.00;;;;;;4956993;29;19926;-53
2023/10/03 01:09:29;;;;;;;;;;;22.10;1.00;;;;;;4956661;28;19985;-52
2023/10/03 01:11:56;;;;;;;;;;;22.10;1.00;;;;;;4939490;29;19965;-52
2023/10/03 01:14:26;;;;;;;;;;;22.10;1.00;;;;;;4956854;29;19962;-57
2023/10/03 01:16:55;;;;;;;;;;;22.10;1.00;;;;;;4939288;29;20399;-53
2023/10/03 01:19:29;;;;;;;;;;;22.10;1.00;;;;;;4939276;29;19957;-57
2023/10/03 01:21:57;;;;;;;;;;;22.10;1.00;;;;;;4938631;29;20032;-56
2023/10/03 01:24:26;;;;;;;;;;;22.10;1.00;;;;;;5241380;23;20297;-54
2023/10/03 01:26:54;;;;;;;;;;;22.10;1.00;;;;;;4918379;29;19927;-55
2023/10/03 01:29:22;;;;;;;;;;;22.10;1.00;;;;;;4901227;29;19927;-55
2023/10/03 01:31:49;;;;;;;;;;;22.10;1.00;;;;;;4918134;29;20457;-55
2023/10/03 01:34:17;;;;;;;;;;;22.10;1.00;;;;;;4918196;29;20397;-54
2023/10/03 01:36:48;;;;;;;;;;;22.00;1.00;;;;;;4887106;29;20413;-52
2023/10/03 01:39:15;;;;;;;;;;;22.10;1.00;;;;;;4899047;29;19963;-54
2023/10/03 01:41:42;;;;;;;;;;;22.10;1.00;;;;;;4899081;29;19931;-51
2023/10/03 01:44:10;;;;;;;;;;;22.00;1.00;;;;;;4899137;29;19934;-55
2023/10/03 01:46:38;;;;;;;;;;;22.10;1.00;;;;;;4882448;29;19994;-51
2023/10/03 01:49:06;;;;;;;;;;;22.10;1.00;;;;;;4915945;29;20389;-53
2023/10/03 01:51:33;;;;;;;;;;;22.10;1.00;;;;;;4900828;29;19931;-53
2023/10/03 01:53:59;;;;;;;;;;;22.10;1.00;;;;;;4917720;29;19934;-53
2023/10/03 01:56:26;;;;;;;;;;;22.00;1.00;;;;;;5194060;23;21391;-53
2023/10/03 01:58:54;;;;;;;;;;;22.10;1.00;;;;;;4919833;29;19927;-51
2023/10/03 02:01:23;;;;;;;;;;;22.10;1.00;;;;;;4904537;29;20382;-53
2023/10/03 02:03:50;;;;;;;;;;;22.10;1.00;;;;;;4919620;29;19931;-56
2023/10/03 02:06:17;;;;;;;;;;;22.10;1.00;;;;;;4936928;29;19965;-56
2023/10/03 02:08:44;;;;;;;;;;;22.10;1.00;;;;;;4919666;29;19933;-53
2023/10/03 02:11:12;;;;;;;;;;;22.00;1.00;;;;;;4919131;29;20400;-55
2023/10/03 02:13:40;;;;;;;;;;;22.00;1.00;;;;;;4919405;29;19945;-56
2023/10/03 02:16:10;;;;;;;;;;;22.00;1.00;;;;;;4936437;29;19934;-53
2023/10/03 02:18:40;;;;;;;;;;;22.00;1.00;;;;;;4919456;29;20034;-52
2023/10/03 02:21:09;;;;;;;;;;;22.00;1.00;;;;;;4936049;29;20458;-54
2023/10/03 02:23:35;;;;;;;;;;;22.00;1.00;;;;;;4936549;29;19927;-50
2023/10/03 02:26:07;;;;;;;;;;;22.00;1.00;;;;;;4919163;29;19934;-54
2023/10/03 02:28:34;;;;;;;;;;;22.00;1.00;;;;;;5081700;23;21075;-51
2023/10/03 02:31:03;;;;;;;;;;;22.00;1.00;;;;;;4952750;29;19974;-52
2023/10/03 02:33:31;;;;;;;;;;;22.00;1.00;;;;;;4950166;28;19958;-53
2023/10/03 02:35:57;;;;;;;;;;;22.00;1.00;;;;;;4926977;29;19926;-52
2023/10/03 02:38:25;;;;;;;;;;;22.00;1.00;;;;;;4943995;29;20050;-55
2023/10/03 02:40:59;;;;;;;;;;;22.00;1.00;;;;;;4933620;29;20233;-56
2023/10/03 02:43:38;;;;;;;;;;;22.00;1.00;;;;;;4926728;29;19969;-56
2023/10/03 02:46:11;;;;;;;;;;;22.00;1.00;;;;;;4943897;29;19934;-55
2023/10/03 02:48:41;;;;;;;;;;;22.00;1.00;;;;;;4926870;29;19962;-53
2023/10/03 02:51:09;;;;;;;;;;;22.00;1.00;;;;;;4927298;29;20389;-52
2023/10/03 02:53:36;;;;;;;;;;;22.00;1.00;;;;;;4937830;29;19933;-51
2023/10/03 02:56:04;;;;;;;;;;;22.00;1.00;;;;;;4929827;29;19955;-54
2023/10/03 02:58:31;;;;;;;;;;;22.00;1.00;;;;;;4934124;29;19933;-56
2023/10/03 03:00:58;;;;;;;;;;;22.00;1.00;;;;;;4934946;29;20399;-55
2023/10/03 03:03:34;;;;;;;;;;;22.00;1.00;;;;;;4930257;29;19949;-53
2023/10/03 03:06:10;;;;;;;;;;;22.00;1.00;;;;;;4930038;29;19956;-56
2023/10/03 03:08:39;;;;;;;;;;;22.00;1.00;;;;;;4937807;29;20424;-52
2023/10/03 03:11:11;;;;;;;;;;;22.00;1.00;;;;;;4937186;29;20399;-53
2023/10/03 03:13:38;;;;;;;;;;;22.00;1.00;;;;;;4929742;29;20352;-54
2023/10/03 03:16:14;;;;;;;;;;;22.00;1.00;;;;;;4946576;29;19937;-54
2023/10/03 03:18:41;;;;;;;;;;;22.00;1.00;;;;;;4946780;29;19981;-51
2023/10/03 03:21:13;;;;;;;;;;;22.00;1.00;;;;;;4946302;29;20345;-53
2023/10/03 03:24:00;;;;;;;;;;;22.00;1.00;;;;;;4937322;29;19927;-52
2023/10/03 03:26:36;;;;;;;;;;;22.00;1.00;;;;;;4954564;29;19926;-53
2023/10/03 03:29:16;;;;;;;;;;;22.00;1.00;;;;;;4954089;29;19926;-51
2023/10/03 03:31:59;;;;;;;;;;;22.00;1.00;;;;;;4962053;28;19933;-53
2023/10/03 03:34:25;;;;;;;;;;;22.00;1.00;;;;;;4970762;28;20396;-53
2023/10/03 03:36:55;;;;;;;;;;;22.00;1.00;;;;;;4962425;28;19927;-56
2023/10/03 03:39:26;;;;;;;;;;;22.00;1.00;;;;;;4972489;28;19926;-51
2023/10/03 03:41:52;;;;;;;;;;;22.00;1.00;;;;;;4973281;28;19926;-56
2023/10/03 03:44:19;;;;;;;;;;;22.00;1.00;;;;;;4973078;28;20265;-55
2023/10/03 03:46:46;;;;;;;;;;;22.00;1.00;;;;;;4973523;28;19926;-51
2023/10/03 03:49:14;;;;;;;;;;;22.00;1.00;;;;;;4973053;28;19933;-55
2023/10/03 03:51:41;;;;;;;;;;;21.90;1.00;;;;;;4973204;28;19930;-53
2023/10/03 03:54:12;;;;;;;;;;;22.00;1.00;;;;;;4973198;28;19926;-53
2023/10/03 03:56:40;;;;;;;;;;;22.00;1.00;;;;;;4973261;28;20037;-55
2023/10/03 03:59:08;;;;;;;;;;;22.00;1.00;;;;;;4972788;28;19926;-55
2023/10/03 04:01:35;;;;;;;;;;;22.00;1.00;;;;;;4953434;28;19931;-54
2023/10/03 04:04:04;;;;;;;;;;;21.90;1.00;;;;;;4954034;28;19933;-52
2023/10/03 04:06:32;;;;;;;;;;;22.00;1.00;;;;;;4953820;28;19945;-53
2023/10/03 04:08:59;;;;;;;;;;;22.00;1.00;;;;;;4953974;28;19926;-55
2023/10/03 04:11:34;;;;;;;;;;;22.00;1.00;;;;;;4946132;28;19952;-51
2023/10/03 04:14:04;;;;;;;;;;;22.00;1.00;;;;;;4954122;28;19926;-52
2023/10/03 04:16:38;;;;;;;;;;;21.90;1.00;;;;;;4953723;28;19977;-55
2023/10/03 04:19:06;;;;;;;;;;;21.90;1.00;;;;;;4953838;28;19926;-57
2023/10/03 04:21:33;;;;;;;;;;;21.90;1.00;;;;;;4928735;29;19926;-54
2023/10/03 04:24:00;;;;;;;;;;;22.00;1.00;;;;;;4953968;28;20009;-55
2023/10/03 04:26:27;;;;;;;;;;;21.90;1.00;;;;;;4953645;28;19926;-53
2023/10/03 04:28:55;;;;;;;;;;;21.90;1.00;;;;;;4953670;28;19974;-53
2023/10/03 04:31:21;;;;;;;;;;;21.90;1.00;;;;;;5263494;23;19955;-54
2023/10/03 04:33:49;;;;;;;;;;;21.90;1.00;;;;;;4920125;29;19930;-53
2023/10/03 04:36:16;;;;;;;;;;;21.90;1.00;;;;;;4934435;29;19927;-55
2023/10/03 04:38:42;;;;;;;;;;;22.00;1.00;;;;;;4930543;29;20046;-55
2023/10/03 04:41:10;;;;;;;;;;;22.00;1.00;;;;;;4911766;29;20396;-53
2023/10/03 04:43:38;;;;;;;;;;;21.90;1.00;;;;;;4904490;29;19927;-56
2023/10/03 04:46:05;;;;;;;;;;;21.90;1.00;;;;;;4911451;29;20449;-56
2023/10/03 04:48:32;;;;;;;;;;;21.90;1.00;;;;;;4907544;29;20338;-55
2023/10/03 04:50:59;;;;;;;;;;;21.90;1.00;;;;;;4907575;29;19927;-55
2023/10/03 04:53:26;;;;;;;;;;;21.90;1.00;;;;;;4915264;29;19928;-55
2023/10/03 04:55:53;;;;;;;;;;;22.00;1.00;;;;;;4908476;29;19937;-53
2023/10/03 04:58:21;;;;;;;;;;;22.00;1.00;;;;;;4910960;29;19927;-53
2023/10/03 05:00:49;;;;;;;;;;;21.90;1.00;;;;;;4918595;29;19934;-53
2023/10/03 05:06:11;;;;;;;;;;;21.90;1.00;;;;;;4881074;27;20370;-51
2023/10/03 05:08:38;;;;;;;;;;;21.90;1.00;;;;;;4884777;29;19957;-56
2023/10/03 05:11:06;;;;;;;;;;;21.90;1.00;;;;;;4899381;29;19988;-56
2023/10/03 05:13:33;;;;;;;;;;;21.90;1.00;;;;;;4899227;29;20398;-51
2023/10/03 05:16:00;;;;;;;;;;;21.90;1.00;;;;;;4899590;29;20381;-56
2023/10/03 05:18:29;;;;;;;;;;;21.90;1.00;;;;;;4899236;29;19928;-51
2023/10/03 05:20:57;;;;;;;;;;;21.90;1.00;;;;;;4899132;29;19959;-53
2023/10/03 05:23:24;;;;;;;;;;;21.90;1.00;;;;;;4899143;29;19927;-53
2023/10/03 05:25:51;;;;;;;;;;;21.90;1.00;;;;;;4899343;29;19935;-54
2023/10/03 05:28:18;;;;;;;;;;;21.90;1.00;;;;;;4899017;29;20018;-53
2023/10/03 05:30:45;;;;;;;;;;;21.90;1.00;;;;;;4899055;29;19949;-53
2023/10/03 05:33:12;;;;;;;;;;;21.90;1.00;;;;;;4899377;29;19927;-53
2023/10/03 05:35:39;;;;;;;;;;;21.90;1.00;;;;;;4899308;29;19931;-54
2023/10/03 05:38:08;;;;;;;;;;;21.90;1.00;;;;;;5078802;23;19946;-53
2023/10/03 05:40:34;;;;;;;;;;;21.90;1.00;;;;;;4955752;29;19985;-57
2023/10/03 05:43:05;;;;;;;;;;;21.90;1.00;;;;;;4956582;29;19926;-51
2023/10/03 05:45:34;;;;;;;;;;;21.90;1.00;;;;;;4956074;29;19951;-52
2023/10/03 05:48:04;;;;;;;;;;;21.90;1.00;;;;;;4956419;29;20124;-55
2023/10/03 05:50:32;;;;;;;;;;;21.90;1.00;;;;;;4955633;29;19926;-54
2023/10/03 05:53:00;;;;;;;;;;;21.90;1.00;;;;;;4956124;29;19937;-55
2023/10/03 05:55:27;;;;;;;;;;;21.90;1.00;;;;;;4956098;29;20287;-51
2023/10/03 05:57:54;;;;;;;;;;;21.80;1.00;;;;;;4938945;29;19957;-56
2023/10/03 06:00:21;;;;;;;;;;;21.90;1.00;;;;;;4955551;29;20384;-51
2023/10/03 06:02:48;;;;;;;;;;;21.80;1.00;;;;;;4956020;29;19980;-54
2023/10/03 06:05:16;;;;;;;;;;;21.80;1.00;;;;;;4954948;29;19927;-55
2023/10/03 06:07:43;;;;;;;;;;;21.90;1.00;;;;;;4954879;28;20018;-51
2023/10/03 06:10:10;;;;;;;;;;;21.90;1.00;;;;;;4954563;29;19931;-55
2023/10/03 06:12:38;;;;;;;;;;;21.80;1.00;;;;;;4955938;29;19949;-55
2023/10/03 06:15:05;;;;;;;;;;;21.80;1.00;;;;;;4954671;29;20312;-52
2023/10/03 06:17:32;;;;;;;;;;;21.90;1.00;;;;;;4955170;29;20380;-54
2023/10/03 06:19:59;;;;;;;;;;;21.80;1.00;;;;;;4955376;29;19926;-52
2023/10/03 06:22:26;;;;;;;;;;;21.80;1.00;;;;;;4955296;29;19965;-53
2023/10/03 06:24:57;;;;;;;;;;;21.80;1.00;;;;;;4955036;29;20447;-52
2023/10/03 06:27:26;;;;;;;;;;;21.80;1.00;;;;;;4955322;29;19926;-52
2023/10/03 06:29:54;;;;;;;;;;;21.90;1.00;;;;;;4955184;29;19961;-52
2023/10/03 06:32:21;;;;;;;;;;;21.80;1.00;;;;;;4954694;29;19934;-52
2023/10/03 06:34:48;;;;;;;;;;;21.90;1.00;;;;;;4955385;29;20384;-55
2023/10/03 06:40:13;;;;;;;;;;;21.80;1.00;;;;;;5289383;23;19934;-56
2023/10/03 06:42:40;;;;;;;;;;;21.80;1.00;;;;;;4933237;29;20215;-52
2023/10/03 06:45:13;;;;;;;;;;;21.80;1.00;;;;;;4925040;29;19927;-53
2023/10/03 06:47:40;;;;;;;;;;;21.80;1.00;;;;;;4916602;29;19934;-50
2023/10/03 06:50:07;;;;;;;;;;;21.80;1.00;;;;;;4916682;29;19933;-54
2023/10/03 06:52:35;;;;;;;;;;;21.80;1.00;;;;;;4916687;29;19928;-52
2023/10/03 06:55:04;;;;;;;;;;;21.80;1.00;;;;;;4916845;29;19959;-52
2023/10/03 06:57:32;;;;;;;;;;;21.80;1.00;;;;;;4933367;29;19927;-51
2023/10/03 06:59:59;;;;;;;;;;;21.80;1.00;;;;;;4935529;29;19962;-56
2023/10/03 07:02:26;;;;;;;;;;;21.80;1.00;;;;;;4935427;29;20366;-56
2023/10/03 07:04:53;;;;;;;;;;;21.80;1.00;;;;;;4935644;29;19927;-52
2023/10/03 07:07:20;;;;;;;;;;;21.80;1.00;;;;;;4935455;29;19926;-56
2023/10/03 07:09:48;;;;;;;;;;;21.80;1.00;;;;;;4932157;29;19998;-53
2023/10/03 07:12:14;;;;;;;;;;;21.70;1.00;;;;;;5552860;23;20423;-53
2023/10/03 07:14:46;;;;;;;;;;;21.70;1.00;;;;;;4954713;29;19998;-51
2023/10/03 07:17:14;;;;;;;;;;;21.80;1.00;;;;;;4954618;29;20384;-49
2023/10/03 07:19:44;;;;;;;;;;;21.80;1.00;;;;;;4959034;28;19933;-54
2023/10/03 07:22:10;;;;;;;;;;;21.70;1.00;;;;;;4968450;28;19926;-56
2023/10/03 07:24:39;;;;;;;;;;;21.80;1.00;;;;;;4973578;28;19926;-51
2023/10/03 07:27:07;;;;;;;;;;;21.80;1.00;;;;;;4973681;28;19971;-52
2023/10/03 07:29:36;;;;;;;;;;;21.80;1.00;;;;;;4965418;28;19937;-52
2023/10/03 07:32:03;;;;;;;;;;;21.80;1.00;;;;;;4973440;28;20396;-53
2023/10/03 07:34:30;;;;;;;;;;;21.70;1.00;;;;;;4973354;28;19940;-52
2023/10/03 07:36:57;;;;;;;;;;;21.70;1.00;;;;;;4973520;28;19964;-54
2023/10/03 07:39:26;;;;;;;;;;;21.80;1.00;;;;;;4973245;28;20411;-55
2023/10/03 07:41:53;;;;;;;;;;;21.70;1.00;;;;;;4969671;28;20296;-54
2023/10/03 07:44:22;;;;;;;;;;;21.70;1.00;;;;;;5227068;23;19927;-51
2023/10/03 07:46:49;;;;;;;;;;;21.70;1.00;;;;;;4926677;29;19927;-51
2023/10/03 07:49:16;;;;;;;;;;;21.70;1.00;;;;;;4935354;29;19927;-50
2023/10/03 07:51:43;;;;;;;;;;;21.70;1.00;;;;;;4934996;29;20341;-53
2023/10/03 07:54:11;;;;;;;;;;;21.70;1.00;;;;;;4934910;29;19949;-55
2023/10/03 07:56:42;;;;;;;;;;;21.70;1.00;;;;;;4917832;29;19934;-54
2023/10/03 07:59:09;;;;;;;;;;;21.70;1.00;;;;;;4915944;29;20353;-51
2023/10/03 08:01:39;;;;;;;;;;;21.70;1.00;;;;;;4898490;29;19933;-57
2023/10/03 08:04:12;;;;;;;;;;;21.70;1.00;;;;;;4898799;29;19939;-54
2023/10/03 08:06:41;;;;;;;;;;;21.70;1.00;;;;;;4915816;29;19991;-52
2023/10/03 08:09:08;;;;;;;;;;;21.70;1.00;;;;;;4915705;29;19951;-53
2023/10/03 08:11:36;;;;;;;;;;;21.70;1.00;;;;;;4915486;29;19927;-54
2023/10/03 08:14:11;;;;;;;;;;;21.70;1.00;;;;;;4915731;29;20363;-50
2023/10/03 08:16:41;;;;;;;;;;;21.70;1.00;;;;;;5132880;23;19963;-52
2023/10/03 08:19:25;;;;;;;;;;;21.70;1.00;;;;;;4953777;28;19982;-53
2023/10/03 08:21:53;;;;;;;;;;;21.70;1.00;;;;;;4953245;29;19926;-50
2023/10/03 08:24:24;;;;;;;;;;;21.70;1.00;;;;;;4953835;29;20024;-55
2023/10/03 08:26:52;;;;;;;;;;;21.70;1.00;;;;;;4953653;29;20002;-50
2023/10/03 08:29:23;;;;;;;;;;;21.70;1.00;;;;;;4947316;29;19974;-55
2023/10/03 08:31:56;;;;;;;;;;;21.70;1.00;;;;;;4948800;29;20297;-52
2023/10/03 08:34:24;;;;;;;;;;;21.70;1.00;;;;;;4957459;29;19927;-55
2023/10/03 08:36:54;;;;;;;;;;;21.70;1.00;;;;;;4957236;29;20025;-54
2023/10/03 08:39:22;;;;;;;;;;;21.70;1.00;;;;;;4957587;28;19926;-54
2023/10/03 08:41:53;;;;;;;;;;;21.70;1.00;;;;;;4956911;29;19934;-54
2023/10/03 08:44:23;;;;;;;;;;;21.70;1.00;;;;;;4957426;29;20020;-52
2023/10/03 08:46:50;;;;;;;;;;;21.70;1.00;;;;;;4921927;29;19938;-52
2023/10/03 08:49:19;;;;;;;;;;;21.70;1.00;;;;;;5038755;23;19927;-54
2023/10/03 08:51:46;;;;;;;;;;;21.70;1.00;;;;;;4918758;29;20382;-51
2023/10/03 08:54:13;;;;;;;;;;;21.70;1.00;;;;;;4919014;29;19931;-55
2023/10/03 08:56:41;;;;;;;;;;;21.60;1.00;;;;;;4901772;29;19955;-50
2023/10/03 08:59:09;;;;;;;;;;;21.70;1.00;;;;;;4918784;29;19934;-53
2023/10/03 09:01:38;;;;;;;;;;;21.70;1.00;;;;;;4926922;29;20278;-55
2023/10/03 09:04:07;;;;;;;;;;;21.60;1.00;;;;;;4938007;29;19970;-53
2023/10/03 09:06:38;;;;;;;;;;;21.60;1.00;;;;;;4918837;29;19927;-56
2023/10/03 09:09:08;;;;;;;;;;;21.60;1.00;;;;;;4919101;29;20297;-55
2023/10/03 09:11:37;;;;;;;;;;;21.60;1.00;;;;;;4918514;29;19927;-52
2023/10/03 09:14:19;;;;;;;;;;;21.60;1.00;;;;;;4918706;29;19931;-54
2023/10/03 09:16:50;;;;;;;;;;;21.60;1.00;;;;;;4918752;29;19927;-52
2023/10/03 09:19:24;;;;;;;;;;;21.70;1.00;;;;;;5001719;23;19940;-55
2023/10/03 09:21:51;;;;;;;;;;;21.70;1.00;;;;;;4937311;29;19962;-53
2023/10/03 09:24:21;;;;;;;;;;;21.60;1.00;;;;;;4937559;29;20013;-50
2023/10/03 09:26:52;;;;;;;;;;;21.60;1.00;;;;;;4937331;29;20060;-52
2023/10/03 09:29:29;;;;;;;;;;;21.60;1.00;;;;;;4942029;29;20411;-55
2023/10/03 09:31:57;;;;;;;;;;;21.60;1.00;;;;;;4956156;29;19969;-53
2023/10/03 09:34:30;;;;;;;;;;;21.60;1.00;;;;;;4956440;29;19927;-53
2023/10/03 09:37:02;;;;;;;;;;;21.60;1.00;;;;;;4956340;29;19934;-52
2023/10/03 09:39:29;;;;;;;;;;;21.60;1.00;;;;;;4956636;29;19934;-53
2023/10/03 09:41:58;;;;;;;;;;;21.60;1.00;;;;;;4947335;28;19933;-55
2023/10/03 09:44:31;;;;;;;;;;;21.60;1.00;;;;;;4948405;29;19926;-55
2023/10/03 09:47:06;;;;;;;;;;;21.60;1.00;;;;;;4955836;29;20483;-53
2023/10/03 09:49:38;;;;;;;;;;;21.60;1.00;;;;;;4956217;29;19938;-55
2023/10/03 09:52:07;;;;;;;;;;;21.60;1.00;;;;;;4948233;29;20302;-55
2023/10/03 09:54:39;;;;;;;;;;;21.60;1.00;;;;;;4948409;29;19933;-54
2023/10/03 09:57:16;;;;;;;;;;;21.60;1.00;;;;;;4956170;29;20399;-53
2023/10/03 09:59:46;;;;;;;;;;;21.60;1.00;;;;;;4955620;29;19970;-56
2023/10/03 10:02:14;;;;;;;;;;;21.60;1.00;;;;;;4956285;29;19935;-52
2023/10/03 10:04:43;;;;;;;;;;;21.60;1.00;;;;;;4947950;29;19974;-54
2023/10/03 10:07:16;;;;;;;;;;;21.60;1.00;;;;;;4955877;29;19926;-55
2023/10/03 10:09:52;;;;;;;;;;;21.60;1.00;;;;;;4954883;29;20028;-51
2023/10/03 10:12:20;;;;;;;;;;;21.60;1.00;;;;;;4949947;29;19926;-55
2023/10/03 10:15:21;;;;;;;;;;;21.60;1.00;;;;;;4956437;29;19946;-56
2023/10/03 10:17:52;;;;;;;;;;;21.60;1.00;;;;;;4957401;29;20270;-56
2023/10/03 10:20:38;;;;;;;;;;;21.60;1.00;;;;;;4956432;29;19997;-53
2023/10/03 10:23:13;;;;;;;;;;;21.60;1.00;;;;;;4947612;29;20029;-54
2023/10/03 10:25:50;;;;;;;;;;;21.60;1.00;;;;;;4955674;29;19933;-54
2023/10/03 10:28:21;;;;;;;;;;;21.60;1.00;;;;;;4948878;29;19926;-53
2023/10/03 10:31:06;;;;;;;;;;;21.60;1.00;;;;;;4955190;29;20001;-53
2023/10/03 10:33:33;;;;;;;;;;;21.60;1.00;;;;;;4955651;29;19931;-53
2023/10/03 10:36:03;;;;;;;;;;;21.60;1.00;;;;;;4955326;29;19926;-55
2023/10/03 10:38:32;;;;;;;;;;;21.60;1.00;;;;;;4949056;29;20407;-53
2023/10/03 10:41:11;;;;;;;;;;;21.60;1.00;;;;;;4945790;29;19926;-52
2023/10/03 10:43:57;;;;;;;;;;;21.60;1.00;;;;;;4955209;29;19931;-55
2023/10/03 10:46:31;;;;;;;;;;;21.60;1.00;;;;;;4949431;29;20485;-51
2023/10/03 10:48:58;;;;;;;;;;;21.60;1.00;;;;;;4954784;29;19961;-56
2023/10/03 10:51:25;;;;;;;;;;;21.60;1.00;;;;;;5190600;23;19931;-55
2023/10/03 10:53:53;;;;;;;;;;;21.60;1.00;;;;;;4954090;28;19926;-53
2023/10/03 10:56:22;;;;;;;;;;;21.60;1.00;;;;;;4955086;29;19926;-55
2023/10/03 10:58:51;;;;;;;;;;;21.60;1.00;;;;;;4955449;28;20340;-50
2023/10/03 11:01:21;;;;;;;;;;;21.60;1.00;;;;;;4965512;28;19953;-51
2023/10/03 11:03:48;;;;;;;;;;;21.50;1.00;;;;;;4973626;28;19938;-51
2023/10/03 11:06:16;;;;;;;;;;;21.60;1.00;;;;;;4966899;28;19933;-51
2023/10/03 11:08:49;;;;;;;;;;;21.60;1.00;;;;;;4974050;28;20388;-55
2023/10/03 11:11:17;;;;;;;;;;;21.60;1.00;;;;;;4962431;28;19926;-52
2023/10/03 11:13:45;;;;;;;;;;;21.50;1.00;;;;;;4970327;28;20304;-55
2023/10/03 11:16:20;;;;;;;;;;;21.60;1.00;;;;;;4966460;28;19926;-53
2023/10/03 11:18:46;;;;;;;;;;;21.50;1.00;;;;;;4973714;28;19926;-53
2023/10/03 11:21:13;;;;;;;;;;;21.60;1.00;;;;;;4970009;28;20391;-54
2023/10/03 11:23:40;;;;;;;;;;;21.60;1.00;;;;;;4980904;23;19939;-53
2023/10/03 11:26:07;;;;;;;;;;;21.60;1.00;;;;;;4916426;29;20357;-57
2023/10/03 11:28:43;;;;;;;;;;;21.60;1.00;;;;;;4916351;29;19943;-56
2023/10/03 11:31:13;;;;;;;;;;;21.60;1.00;;;;;;4897493;29;19959;-57
2023/10/03 11:33:43;;;;;;;;;;;21.60;1.00;;;;;;4897463;29;19927;-57
2023/10/03 11:36:11;;;;;;;;;;;21.50;1.00;;;;;;4897171;29;20290;-57
2023/10/03 11:38:44;;;;;;;;;;;21.60;1.00;;;;;;4897436;29;19967;-58
2023/10/03 11:41:11;;;;;;;;;;;21.50;1.00;;;;;;4897100;29;20219;-57
2023/10/03 11:43:46;;;;;;;;;;;21.50;1.00;;;;;;4897427;29;19927;-58
2023/10/03 11:46:14;;;;;;;;;;;21.60;1.00;;;;;;4916686;29;19934;-58
2023/10/03 11:48:41;;;;;;;;;;;21.50;1.00;;;;;;4916108;29;19994;-56
2023/10/03 11:51:08;;;;;;;;;;;21.50;1.00;;;;;;4905399;29;19959;-54
2023/10/03 11:53:35;;;;;;;;;;;21.50;1.00;;;;;;4897432;29;20283;-58
2023/10/03 11:56:02;;;;;;;;;;;21.50;1.00;;;;;;4910783;29;20558;-56
2023/10/03 11:58:28;;;;;;;;;;;21.50;1.00;;;;;;4915867;29;19931;-55
2023/10/03 12:00:55;;;;;;;;;;;21.60;1.00;;;;;;4915520;29;19950;-54
2023/10/03 12:03:22;;;;;;;;;;;21.60;1.00;;;;;;4915893;29;19975;-53
2023/10/03 12:05:52;;;;;;;;;;;21.50;1.00;;;;;;4920482;29;19927;-56
2023/10/03 12:08:19;;;;;;;;;;;21.60;1.00;;;;;;4896017;29;19943;-54
2023/10/03 12:10:46;;;;;;;;;;;21.50;1.00;;;;;;4902969;29;20023;-52
2023/10/03 12:13:15;;;;;;;;;;;21.50;1.00;;;;;;4903131;29;19928;-57
2023/10/03 12:15:42;;;;;;;;;;;21.50;1.00;;;;;;4903337;29;19950;-57
2023/10/03 12:18:10;;;;;;;;;;;21.50;1.00;;;;;;4903151;29;19927;-57
2023/10/03 12:20:38;;;;;;;;;;;21.50;1.00;;;;;;4903075;29;19935;-53
2023/10/03 12:23:06;;;;;;;;;;;21.50;1.00;;;;;;4902913;29;20386;-56
2023/10/03 12:25:33;;;;;;;;;;;21.50;1.00;;;;;;5008031;23;19958;-57
2023/10/03 12:27:59;;;;;;;;;;;21.50;1.00;;;;;;4940945;29;20399;-57
2023/10/03 12:30:26;;;;;;;;;;;21.60;1.00;;;;;;4954394;29;19931;-57
2023/10/03 12:32:53;;;;;;;;;;;21.50;1.00;;;;;;4959923;29;19973;-56
2023/10/03 12:35:21;;;;;;;;;;;21.50;1.00;;;;;;4960340;29;19927;-57
2023/10/03 12:37:48;;;;;;;;;;;21.50;1.00;;;;;;4960162;28;20297;-52
2023/10/03 12:40:16;;;;;;;;;;;21.50;1.00;;;;;;4959729;29;19981;-55
2023/10/03 12:42:44;;;;;;;;;;;21.50;1.00;;;;;;4960088;29;19958;-54
2023/10/03 12:45:16;;;;;;;;;;;21.50;1.00;;;;;;4960041;28;20021;-57
2023/10/03 12:47:47;;;;;;;;;;;21.50;1.00;;;;;;4952052;28;19970;-56
2023/10/03 12:50:14;;;;;;;;;;;21.50;1.00;;;;;;4951585;28;19989;-55
2023/10/03 12:52:42;;;;;;;;;;;21.50;1.00;;;;;;4953780;28;20300;-56
2023/10/03 12:57:58;;;;;;;;;;;21.50;1.00;;;;;;5346613;23;19934;-54
2023/10/03 13:00:26;;;;;;;;;;;21.50;1.00;;;;;;4940427;29;20440;-53
2023/10/03 13:02:54;;;;;;;;;;;21.50;1.00;;;;;;4940676;29;20411;-55
2023/10/03 13:05:22;;;;;;;;;;;21.50;1.00;;;;;;4940794;29;19927;-55
2023/10/03 13:07:49;;;;;;;;;;;21.50;1.00;;;;;;4923457;29;19975;-55
2023/10/03 13:10:17;;;;;;;;;;;21.50;1.00;;;;;;4940245;29;19990;-56
2023/10/03 13:12:45;;;;;;;;;;;21.50;1.00;;;;;;4923558;29;19958;-57
2023/10/03 13:15:15;;;;;;;;;;;21.50;1.00;;;;;;4940494;29;20389;-54
2023/10/03 13:17:42;;;;;;;;;;;21.50;1.00;;;;;;4937122;29;20300;-56
2023/10/03 13:20:13;;;;;;;;;;;21.50;1.00;;;;;;4937134;29;19927;-56
2023/10/03 13:22:40;;;;;;;;;;;21.50;1.00;;;;;;4937698;29;19927;-57
2023/10/03 13:25:11;;;;;;;;;;;21.50;1.00;;;;;;4937523;29;20021;-56
2023/10/03 13:27:38;;;;;;;;;;;21.50;1.00;;;;;;4937410;29;19934;-52
2023/10/03 13:30:09;;;;;;;;;;;21.50;1.00;;;;;;5195164;23;20017;-53
2023/10/03 13:32:37;;;;;;;;;;;21.50;1.00;;;;;;4951705;29;20293;-53
2023/10/03 13:35:08;;;;;;;;;;;21.50;1.00;;;;;;4937271;29;20021;-56
2023/10/03 13:37:35;;;;;;;;;;;21.50;1.00;;;;;;4937302;29;20357;-55
2023/10/03 13:40:05;;;;;;;;;;;21.50;1.00;;;;;;4936905;29;19927;-56
2023/10/03 13:42:32;;;;;;;;;;;21.50;1.00;;;;;;4924832;29;19926;-57
2023/10/03 13:44:59;;;;;;;;;;;21.50;1.00;;;;;;4948234;29;20358;-54
2023/10/03 13:47:26;;;;;;;;;;;21.50;1.00;;;;;;4948465;29;19926;-57
2023/10/03 13:49:53;;;;;;;;;;;21.50;1.00;;;;;;4948903;29;19934;-55
2023/10/03 13:52:20;;;;;;;;;;;21.50;1.00;;;;;;4936953;29;19935;-57
2023/10/03 13:54:47;;;;;;;;;;;21.50;1.00;;;;;;4937246;29;19941;-57
2023/10/03 13:57:16;;;;;;;;;;;21.50;1.00;;;;;;4936519;29;20490;-53
2023/10/03 13:59:45;;;;;;;;;;;21.50;1.00;;;;;;4942261;29;19933;-55
2023/10/03 14:02:12;;;;;;;;;;;21.50;1.00;;;;;;5110730;23;19927;-56
2023/10/03 14:04:39;;;;;;;;;;;21.50;1.00;;;;;;4936949;29;20404;-54
2023/10/03 14:07:06;;;;;;;;;;;21.50;1.00;;;;;;4936739;29;19982;-56
2023/10/03 14:09:33;;;;;;;;;;;21.50;1.00;;;;;;4936663;29;20017;-56
2023/10/03 14:12:05;;;;;;;;;;;21.50;1.00;;;;;;4936592;29;20010;-56
2023/10/03 14:14:32;;;;;;;;;;;21.50;1.00;;;;;;4937196;29;20278;-54
2023/10/03 14:17:03;;;;;;;;;;;21.50;1.00;;;;;;4937014;29;19927;-57
2023/10/03 14:19:30;;;;;;;;;;;21.50;1.00;;;;;;4921632;29;19941;-56
2023/10/03 14:21:59;;;;;;;;;;;21.50;1.00;;;;;;4936255;29;19934;-56
2023/10/03 14:24:26;;;;;;;;;;;21.50;1.00;;;;;;4936302;29;19934;-56
2023/10/03 14:26:53;;;;;;;;;;;21.50;1.00;;;;;;4919562;29;19934;-54
2023/10/03 14:29:20;;;;;;;;;;;21.50;1.00;;;;;;4935742;29;19934;-54
2023/10/03 14:31:47;;;;;;;;;;;21.50;1.00;;;;;;5061187;23;19925;-56
2023/10/03 14:34:14;;;;;;;;;;;21.50;1.00;;;;;;4936208;29;20022;-55
2023/10/03 14:36:43;;;;;;;;;;;21.50;1.00;;;;;;4936679;29;20365;-55
2023/10/03 14:39:13;;;;;;;;;;;21.50;1.00;;;;;;4935865;29;19927;-57
2023/10/03 14:41:40;;;;;;;;;;;21.50;1.00;;;;;;4935816;29;20282;-57
2023/10/03 14:44:09;;;;;;;;;;;21.50;1.00;;;;;;4935807;29;20394;-53
2023/10/03 14:46:36;;;;;;;;;;;21.50;1.00;;;;;;4931942;29;19928;-53
2023/10/03 14:49:03;;;;;;;;;;;21.50;1.00;;;;;;4916749;29;19977;-54